createdAt,value
2022-07-30T00:01:51.920Z,65.42
2022-07-30T00:04:14.934Z,65.30
2022-07-30T00:06:40.024Z,65.20
2022-07-30T00:09:03.133Z,64.70
2022-07-30T00:11:28.052Z,65.51
2022-07-30T00:13:52.682Z,65.79
2022-07-30T00:16:15.728Z,65.54
2022-07-30T00:18:38.899Z,65.66
2022-07-30T00:21:03.621Z,65.88
2022-07-30T00:23:26.734Z,65.31
2022-07-30T00:25:49.738Z,66.07
2022-07-30T00:28:12.836Z,66.10
2022-07-30T00:30:38.332Z,65.23
2022-07-30T00:33:01.459Z,65.32
2022-07-30T00:35:24.517Z,64.59
2022-07-30T00:37:50.668Z,64.30
2022-07-30T00:40:13.721Z,64.07
2022-07-30T00:42:40.458Z,63.34
2022-07-30T00:45:03.503Z,63.94
2022-07-30T00:47:28.397Z,64.37
2022-07-30T00:49:51.434Z,64.79
2022-07-30T00:52:14.429Z,64.46
2022-07-30T00:54:37.565Z,64.91
2022-07-30T00:57:00.850Z,65.91
2022-07-30T00:59:23.966Z,66.15
2022-07-30T01:01:47.223Z,66.36
2022-07-30T01:04:12.589Z,66.86
2022-07-30T01:06:35.594Z,66.95
2022-07-30T01:08:58.710Z,66.60
2022-07-30T01:11:21.783Z,66.25
2022-07-30T01:13:44.853Z,65.79
2022-07-30T01:16:07.901Z,65.86
2022-07-30T01:18:50.961Z,65.05
2022-07-30T01:21:14.455Z,64.44
2022-07-30T01:23:39.361Z,63.84
2022-07-30T01:26:08.690Z,64.63
2022-07-30T01:28:32.633Z,64.15
2022-07-30T01:30:56.049Z,65.15
2022-07-30T01:33:19.129Z,65.83
2022-07-30T01:35:42.851Z,65.74
2022-07-30T01:38:06.146Z,66.13
2022-07-30T01:40:29.294Z,65.97
2022-07-30T01:42:55.010Z,66.68
2022-07-30T01:45:18.150Z,66.31
2022-07-30T01:47:41.193Z,65.63
2022-07-30T01:50:04.458Z,65.19
2022-07-30T01:52:28.026Z,65.33
2022-07-30T01:54:52.262Z,65.76
2022-07-30T01:57:15.911Z,66.16
2022-07-30T01:59:40.395Z,66.32
2022-07-30T02:02:03.729Z,66.31
2022-07-30T02:04:28.910Z,66.56
2022-07-30T02:06:53.564Z,65.50
2022-07-30T02:09:16.967Z,65.78
2022-07-30T02:11:59.910Z,65.57
2022-07-30T02:14:25.158Z,65.59
2022-07-30T02:16:50.836Z,65.70
2022-07-30T02:19:14.605Z,65.79
2022-07-30T02:21:38.830Z,66.30
2022-07-30T02:24:01.912Z,65.90
2022-07-30T02:26:25.334Z,66.03
2022-07-30T02:28:49.952Z,66.15
2022-07-30T02:31:17.642Z,66.79
2022-07-30T02:33:48.749Z,66.56
2022-07-30T02:36:12.511Z,66.23
2022-07-30T02:38:35.694Z,66.26
2022-07-30T02:40:59.142Z,65.96
2022-07-30T02:43:25.153Z,66.40
2022-07-30T02:45:48.195Z,66.10
2022-07-30T02:48:11.315Z,66.02
2022-07-30T02:50:55.714Z,65.51
2022-07-30T02:53:18.870Z,65.89
2022-07-30T02:55:42.069Z,66.10
2022-07-30T02:58:05.672Z,65.95
2022-07-30T03:00:28.987Z,65.49
2022-07-30T03:02:52.570Z,65.76
2022-07-30T03:05:19.805Z,65.90
2022-07-30T03:07:44.426Z,66.00
2022-07-30T03:10:07.975Z,66.40
2022-07-30T03:12:31.229Z,66.21
2022-07-30T03:14:54.502Z,66.41
2022-07-30T03:17:17.850Z,66.36
2022-07-30T03:19:40.947Z,65.92
2022-07-30T03:22:04.052Z,66.21
2022-07-30T03:24:28.523Z,65.45
2022-07-30T03:26:51.945Z,65.39
2022-07-30T03:29:15.033Z,65.37
2022-07-30T03:31:38.123Z,65.97
2022-07-30T03:34:02.030Z,65.93
2022-07-30T03:36:25.191Z,65.72
2022-07-30T03:38:48.200Z,65.63
2022-07-30T03:41:12.945Z,66.16
2022-07-30T03:43:37.669Z,66.32
2022-07-30T03:46:00.806Z,65.30
2022-07-30T03:48:26.203Z,65.24
2022-07-30T03:50:51.545Z,65.43
2022-07-30T03:53:14.683Z,65.42
2022-07-30T03:55:56.198Z,65.51
2022-07-30T03:58:40.998Z,65.75
2022-07-30T04:01:05.485Z,66.02
2022-07-30T04:03:28.708Z,65.97
2022-07-30T04:05:55.730Z,66.16
2022-07-30T04:08:18.803Z,65.59
2022-07-30T04:10:44.354Z,65.43
2022-07-30T04:13:27.314Z,64.70
2022-07-30T04:16:37.018Z,65.16
2022-07-30T04:18:37.159Z,64.87
2022-07-30T04:21:00.160Z,65.04
2022-07-30T04:23:23.149Z,65.22
2022-07-30T04:25:46.314Z,64.79
2022-07-30T04:28:10.690Z,64.42
2022-07-30T04:30:34.980Z,64.48
2022-07-30T04:32:59.530Z,64.31
2022-07-30T04:35:50.763Z,64.52
2022-07-30T04:38:21.850Z,64.48
2022-07-30T04:40:47.594Z,65.36
2022-07-30T04:43:10.744Z,65.14
2022-07-30T04:45:35.417Z,64.79
2022-07-30T04:48:02.784Z,65.09
2022-07-30T04:50:28.899Z,65.03
2022-07-30T04:52:53.587Z,64.97
2022-07-30T04:55:22.794Z,64.97
2022-07-30T04:57:45.830Z,65.33
2022-07-30T05:00:09.418Z,65.01
2022-07-30T05:02:35.050Z,64.71
2022-07-30T05:04:59.576Z,64.58
2022-07-30T05:07:23.322Z,64.03
2022-07-30T05:09:46.670Z,63.88
2022-07-30T05:12:09.993Z,64.22
2022-07-30T05:14:33.177Z,64.86
2022-07-30T05:16:56.663Z,65.37
2022-07-30T05:19:20.488Z,65.54
2022-07-30T05:21:45.227Z,65.38
2022-07-30T05:24:09.232Z,64.68
2022-07-30T05:26:35.269Z,63.76
2022-07-30T05:28:58.871Z,63.52
2022-07-30T05:31:29.392Z,63.28
2022-07-30T05:34:02.569Z,63.37
2022-07-30T05:36:32.965Z,63.16
2022-07-30T05:38:57.502Z,63.38
2022-07-30T05:41:33.299Z,63.48
2022-07-30T05:43:59.407Z,63.75
2022-07-30T05:46:22.557Z,63.39
2022-07-30T05:48:45.592Z,63.97
2022-07-30T05:51:08.812Z,64.19
2022-07-30T05:53:32.203Z,63.90
2022-07-30T05:56:23.027Z,63.98
2022-07-30T05:59:18.168Z,64.02
2022-07-30T06:02:03.306Z,63.76
2022-07-30T06:04:46.104Z,63.49
2022-07-30T06:07:09.910Z,63.33
2022-07-30T06:09:37.136Z,63.67
2022-07-30T06:12:03.061Z,63.89
2022-07-30T06:14:26.296Z,63.89
2022-07-30T06:16:49.633Z,63.61
2022-07-30T06:19:19.400Z,63.30
2022-07-30T06:22:01.516Z,63.20
2022-07-30T06:24:29.056Z,63.00
2022-07-30T06:27:00.135Z,62.49
2022-07-30T06:29:24.730Z,62.46
2022-07-30T06:31:48.028Z,62.34
2022-07-30T06:34:11.737Z,62.04
2022-07-30T06:36:38.010Z,62.00
2022-07-30T06:39:05.661Z,62.01
2022-07-30T06:41:50.930Z,62.08
2022-07-30T06:44:14.018Z,61.79
2022-07-30T06:46:57.005Z,61.79
2022-07-30T06:49:22.914Z,61.53
2022-07-30T06:51:47.045Z,61.62
2022-07-30T06:54:10.493Z,61.50
2022-07-30T06:56:56.717Z,61.47
2022-07-30T06:59:20.271Z,61.28
2022-07-30T07:01:54.290Z,61.47
2022-07-30T07:04:19.228Z,61.33
2022-07-30T07:06:42.381Z,61.09
2022-07-30T07:09:07.109Z,61.07
2022-07-30T07:11:57.992Z,61.01
2022-07-30T07:14:21.008Z,60.71
2022-07-30T07:16:44.167Z,61.01
2022-07-30T07:19:39.903Z,60.83
2022-07-30T07:22:23.556Z,61.05
2022-07-30T07:24:46.763Z,60.96
2022-07-30T07:27:18.246Z,60.52
2022-07-30T07:30:01.904Z,60.71
2022-07-30T07:32:29.371Z,60.36
2022-07-30T07:34:53.858Z,60.77
2022-07-30T07:37:17.759Z,60.23
2022-07-30T07:39:42.395Z,60.24
2022-07-30T07:42:06.044Z,60.05
2022-07-30T07:44:29.130Z,59.99
2022-07-30T07:46:52.174Z,59.72
2022-07-30T07:49:16.719Z,60.07
2022-07-30T07:51:48.407Z,59.83
2022-07-30T07:54:21.474Z,59.82
2022-07-30T07:56:46.213Z,59.89
2022-07-30T07:59:10.221Z,59.75
2022-07-30T08:01:36.426Z,59.51
2022-07-30T08:04:10.494Z,59.54
2022-07-30T08:06:53.467Z,59.53
2022-07-30T08:09:43.790Z,59.53
2022-07-30T08:12:17.381Z,59.99
2022-07-30T08:15:03.869Z,60.04
2022-07-30T08:18:07.915Z,60.09
2022-07-30T08:20:57.254Z,59.98
2022-07-30T08:23:26.430Z,60.26
2022-07-30T08:25:49.581Z,59.99
2022-07-30T08:28:20.164Z,60.39
2022-07-30T08:30:57.968Z,60.33
2022-07-30T08:33:23.779Z,60.41
2022-07-30T08:35:58.921Z,60.42
2022-07-30T08:38:27.644Z,60.57
2022-07-30T08:40:50.703Z,60.32
2022-07-30T08:43:13.818Z,60.79
2022-07-30T08:45:36.804Z,60.85
2022-07-30T08:48:16.268Z,60.72
2022-07-30T08:50:41.528Z,60.96
2022-07-30T08:53:25.335Z,60.95
2022-07-30T08:55:55.662Z,60.92
2022-07-30T08:58:23.898Z,61.20
2022-07-30T09:00:46.962Z,61.29
2022-07-30T09:03:10.175Z,61.05
2022-07-30T09:05:33.435Z,61.31
2022-07-30T09:07:56.759Z,61.21
2022-07-30T09:10:21.013Z,61.50
2022-07-30T09:12:45.619Z,61.30
2022-07-30T09:15:10.366Z,61.04
2022-07-30T09:17:46.346Z,61.28
2022-07-30T09:20:10.366Z,61.06
2022-07-30T09:22:42.249Z,60.79
2022-07-30T09:25:36.810Z,60.64
2022-07-30T09:28:28.317Z,60.47
2022-07-30T09:31:09.946Z,60.69
2022-07-30T09:33:53.306Z,60.65
2022-07-30T09:36:54.911Z,60.33
2022-07-30T09:39:18.829Z,60.45
2022-07-30T09:42:05.631Z,60.61
2022-07-30T09:44:30.897Z,60.30
2022-07-30T09:46:53.964Z,60.39
2022-07-30T09:49:22.852Z,60.00
2022-07-30T09:51:56.643Z,60.04
2022-07-30T09:54:21.300Z,60.02
2022-07-30T09:56:53.829Z,59.88
2022-07-30T09:59:27.015Z,59.59
2022-07-30T10:02:03.775Z,59.69
2022-07-30T10:05:09.698Z,59.19
2022-07-30T10:07:42.667Z,59.31
2022-07-30T10:10:07.625Z,59.62
2022-07-30T10:12:32.404Z,59.56
2022-07-30T10:14:55.456Z,60.08
2022-07-30T10:17:19.942Z,60.10
2022-07-30T10:20:19.035Z,59.70
2022-07-30T10:23:15.724Z,59.81
2022-07-30T10:26:08.429Z,59.90
2022-07-30T10:29:05.166Z,60.07
2022-07-30T10:31:48.145Z,60.36
2022-07-30T10:34:13.340Z,60.49
2022-07-30T10:36:37.101Z,60.46
2022-07-30T10:39:00.123Z,60.59
2022-07-30T10:41:43.351Z,60.11
2022-07-30T10:44:15.843Z,60.53
2022-07-30T10:46:43.694Z,60.21
2022-07-30T10:49:12.558Z,60.49
2022-07-30T10:51:48.498Z,60.39
2022-07-30T10:54:26.885Z,60.60
2022-07-30T10:56:58.794Z,60.89
2022-07-30T10:59:28.822Z,61.21
2022-07-30T11:02:10.416Z,61.41
2022-07-30T11:04:34.326Z,61.33
2022-07-30T11:07:17.313Z,61.60
2022-07-30T11:09:42.757Z,61.58
2022-07-30T11:12:06.779Z,61.62
2022-07-30T11:14:44.697Z,61.78
2022-07-30T11:17:08.088Z,62.09
2022-07-30T11:19:57.063Z,62.65
2022-07-30T11:22:23.782Z,62.49
2022-07-30T11:24:49.026Z,62.92
2022-07-30T11:27:12.205Z,62.82
2022-07-30T11:29:50.679Z,63.48
2022-07-30T11:32:31.989Z,63.63
2022-07-30T11:35:12.437Z,64.02
2022-07-30T11:37:52.068Z,64.78
2022-07-30T11:40:16.773Z,64.62
2022-07-30T11:42:49.614Z,65.27
2022-07-30T11:45:29.636Z,65.31
2022-07-30T11:47:53.476Z,64.94
2022-07-30T11:50:18.262Z,65.26
2022-07-30T11:52:41.331Z,65.15
2022-07-30T11:55:06.821Z,65.95
2022-07-30T11:57:41.932Z,66.35
2022-07-30T12:00:05.479Z,66.76
2022-07-30T12:02:37.702Z,66.50
2022-07-30T12:05:00.814Z,67.01
2022-07-30T12:07:24.172Z,67.38
2022-07-30T12:09:47.297Z,67.42
2022-07-30T12:12:23.631Z,67.51
2022-07-30T12:14:48.039Z,67.94
2022-07-30T12:17:14.878Z,67.97
2022-07-30T12:19:47.820Z,68.30
2022-07-30T12:22:11.816Z,67.99
2022-07-30T12:24:34.866Z,67.87
2022-07-30T12:27:05.746Z,67.74
2022-07-30T12:29:29.318Z,67.56
2022-07-30T12:31:54.931Z,67.49
2022-07-30T12:34:21.819Z,67.64
2022-07-30T12:36:44.812Z,67.63
2022-07-30T12:39:08.237Z,67.63
2022-07-30T12:41:42.664Z,67.62
2022-07-30T12:44:05.826Z,67.02
2022-07-30T12:46:29.004Z,67.01
2022-07-30T12:48:57.901Z,67.66
2022-07-30T12:51:21.315Z,67.97
2022-07-30T12:53:44.339Z,68.39
2022-07-30T12:56:14.268Z,68.50
2022-07-30T12:58:37.527Z,68.36
2022-07-30T13:01:00.518Z,68.15
2022-07-30T13:03:23.913Z,68.24
2022-07-30T13:05:48.788Z,68.90
2022-07-30T13:08:11.930Z,68.82
2022-07-30T13:10:35.101Z,69.05
2022-07-30T13:12:58.544Z,68.73
2022-07-30T13:15:22.456Z,68.92
2022-07-30T13:17:45.553Z,68.65
2022-07-30T13:20:09.533Z,68.92
2022-07-30T13:22:34.119Z,69.07
2022-07-30T13:24:57.408Z,69.02
2022-07-30T13:27:20.603Z,68.76
2022-07-30T13:29:43.792Z,68.57
2022-07-30T13:32:07.318Z,69.13
2022-07-30T13:34:30.545Z,69.29
2022-07-30T13:36:53.665Z,68.84
2022-07-30T13:39:18.293Z,68.67
2022-07-30T13:41:42.274Z,68.85
2022-07-30T13:44:05.890Z,69.11
2022-07-30T13:46:29.006Z,69.19
2022-07-30T13:48:52.402Z,69.04
2022-07-30T13:51:16.790Z,68.94
2022-07-30T13:53:39.963Z,68.52
2022-07-30T13:56:04.796Z,68.40
2022-07-30T13:58:36.290Z,69.00
2022-07-30T14:00:59.552Z,68.67
2022-07-30T14:03:22.802Z,68.78
2022-07-30T14:05:46.002Z,68.69
2022-07-30T14:08:09.225Z,69.19
2022-07-30T14:10:32.812Z,69.09
2022-07-30T14:12:57.455Z,69.51
2022-07-30T14:15:20.658Z,69.28
2022-07-30T14:17:43.965Z,69.41
2022-07-30T14:20:19.984Z,68.35
2022-07-30T14:22:43.270Z,68.04
2022-07-30T14:25:07.015Z,67.42
2022-07-30T14:27:30.410Z,67.54
2022-07-30T14:29:54.999Z,67.68
2022-07-30T14:32:18.454Z,67.41
2022-07-30T14:34:41.616Z,67.44
2022-07-30T14:37:14.406Z,67.71
2022-07-30T14:39:37.897Z,67.67
2022-07-30T14:42:01.112Z,68.01
2022-07-30T14:44:24.587Z,67.79
2022-07-30T14:46:52.066Z,67.60
2022-07-30T14:49:16.943Z,67.79
2022-07-30T14:51:40.781Z,67.94
2022-07-30T14:54:04.017Z,67.56
2022-07-30T14:56:27.381Z,67.01
2022-07-30T14:58:50.584Z,66.93
2022-07-30T15:01:16.171Z,66.95
2022-07-30T15:03:41.568Z,66.54
2022-07-30T15:06:04.933Z,66.68
2022-07-30T15:08:28.175Z,66.85
2022-07-30T15:10:51.374Z,66.69
2022-07-30T15:13:14.692Z,66.47
2022-07-30T15:15:39.077Z,66.36
2022-07-30T15:18:02.419Z,66.65
2022-07-30T15:20:26.987Z,66.67
2022-07-30T15:22:50.217Z,66.70
2022-07-30T15:25:13.576Z,66.97
2022-07-30T15:27:36.919Z,66.95
2022-07-30T15:30:00.268Z,67.39
2022-07-30T15:32:23.421Z,67.46
2022-07-30T15:34:46.963Z,67.35
2022-07-30T15:37:11.665Z,67.46
2022-07-30T15:39:36.065Z,67.33
2022-07-30T15:41:59.621Z,66.90
2022-07-30T15:44:23.035Z,66.84
2022-07-30T15:46:46.262Z,66.48
2022-07-30T15:49:10.222Z,66.38
2022-07-30T15:51:33.522Z,66.23
2022-07-30T15:53:58.198Z,66.43
2022-07-30T15:56:21.324Z,66.03
2022-07-30T15:58:44.605Z,66.27
2022-07-30T16:01:09.391Z,66.26
2022-07-30T16:03:32.657Z,66.00
2022-07-30T16:05:55.960Z,65.63
2022-07-30T16:08:19.180Z,65.69
2022-07-30T16:10:43.792Z,65.37
2022-07-30T16:13:07.279Z,65.27
2022-07-30T16:15:30.474Z,65.15
2022-07-30T16:17:53.852Z,65.40
2022-07-30T16:20:17.013Z,65.08
2022-07-30T16:22:40.220Z,65.42
2022-07-30T16:25:03.411Z,65.61
2022-07-30T16:27:28.058Z,65.39
2022-07-30T16:29:51.224Z,65.10
2022-07-30T16:32:14.433Z,65.41
2022-07-30T16:34:37.716Z,65.12
2022-07-30T16:37:04.103Z,65.21
2022-07-30T16:39:27.669Z,65.31
2022-07-30T16:41:50.912Z,64.97
2022-07-30T16:44:15.546Z,64.84
2022-07-30T16:46:39.027Z,64.50
2022-07-30T16:49:02.328Z,63.93
2022-07-30T16:51:25.622Z,63.38
2022-07-30T16:53:49.896Z,63.50
2022-07-30T16:56:13.103Z,63.05
2022-07-30T16:58:36.427Z,63.19
2022-07-30T17:01:01.067Z,63.19
2022-07-30T17:03:25.521Z,63.00
2022-07-30T17:05:48.826Z,63.04
2022-07-30T17:08:12.139Z,63.51
2022-07-30T17:10:35.343Z,63.50
2022-07-30T17:12:58.831Z,63.93
2022-07-30T17:15:32.048Z,64.18
2022-07-30T17:17:57.622Z,64.48
2022-07-30T17:20:21.073Z,64.75
2022-07-30T17:22:44.299Z,65.09
2022-07-30T17:25:07.953Z,65.24
2022-07-30T17:27:31.969Z,65.64
2022-07-30T17:29:55.161Z,65.60
2022-07-30T17:32:18.371Z,66.25
2022-07-30T17:34:43.237Z,66.34
2022-07-30T17:37:06.517Z,66.08
2022-07-30T17:40:24.757Z,66.76
2022-07-30T17:42:13.321Z,66.39
2022-07-30T17:44:36.841Z,67.14
2022-07-30T17:47:00.266Z,67.26
2022-07-30T17:49:23.549Z,67.05
2022-07-30T17:51:48.224Z,67.26
2022-07-30T17:54:11.471Z,67.16
2022-07-30T17:56:34.665Z,67.29
2022-07-30T17:58:57.873Z,66.97
2022-07-30T18:01:21.247Z,67.07
2022-07-30T18:03:44.945Z,67.36
2022-07-30T18:06:08.529Z,67.89
2022-07-30T18:08:34.836Z,67.50
2022-07-30T18:10:58.087Z,67.88
2022-07-30T18:13:26.651Z,67.59
2022-07-30T18:15:50.695Z,68.52
2022-07-30T18:18:13.952Z,67.99
2022-07-30T18:20:37.206Z,68.32
2022-07-30T18:23:14.300Z,68.22
2022-07-30T18:25:53.367Z,68.25
2022-07-30T18:28:17.984Z,68.01
2022-07-30T18:30:41.435Z,68.15
2022-07-30T18:33:04.792Z,68.80
2022-07-30T18:35:28.015Z,68.71
2022-07-30T18:37:51.227Z,68.30
2022-07-30T18:40:14.712Z,68.18
2022-07-30T18:42:39.312Z,68.04
2022-07-30T18:45:02.571Z,68.42
2022-07-30T18:47:25.799Z,68.62
2022-07-30T18:49:50.372Z,68.83
2022-07-30T18:52:13.621Z,69.26
2022-07-30T18:54:37.162Z,69.04
2022-07-30T18:57:00.432Z,69.43
2022-07-30T18:59:25.031Z,69.35
2022-07-30T19:01:48.370Z,69.05
2022-07-30T19:04:11.848Z,68.86
2022-07-30T19:06:38.178Z,69.32
2022-07-30T19:09:01.492Z,69.31
2022-07-30T19:11:24.724Z,69.53
2022-07-30T19:13:48.041Z,69.49
2022-07-30T19:16:15.790Z,69.27
2022-07-30T19:18:39.054Z,69.20
2022-07-30T19:21:02.583Z,68.63
2022-07-30T19:23:25.821Z,69.14
2022-07-30T19:25:49.036Z,69.39
2022-07-30T19:28:14.091Z,69.59
2022-07-30T19:30:37.322Z,69.82
2022-07-30T19:33:12.495Z,68.92
2022-07-30T19:35:37.953Z,69.92
2022-07-30T19:38:01.192Z,69.83
2022-07-30T19:40:24.347Z,69.74
2022-07-30T19:45:46.727Z,68.95
2022-07-30T19:48:12.503Z,69.17
2022-07-30T19:50:36.699Z,68.89
2022-07-30T19:53:00.032Z,69.01
2022-07-30T19:55:35.408Z,68.77
2022-07-30T19:57:59.275Z,69.07
2022-07-30T20:00:25.109Z,68.58
2022-07-30T20:02:49.022Z,68.63
2022-07-30T20:05:15.811Z,68.54
2022-07-30T20:07:39.431Z,68.40
2022-07-30T20:10:02.985Z,69.20
2022-07-30T20:12:26.602Z,69.49
2022-07-30T20:14:49.894Z,69.25
2022-07-30T20:17:13.239Z,68.94
2022-07-30T20:19:38.113Z,69.82
2022-07-30T20:22:13.113Z,69.98
2022-07-30T20:24:36.708Z,70.10
2022-07-30T20:29:45.251Z,69.46
2022-07-30T20:32:09.914Z,69.83
2022-07-30T20:34:33.152Z,69.37
2022-07-30T20:36:56.992Z,70.22
2022-07-30T20:39:21.705Z,70.44
2022-07-30T20:41:44.997Z,69.53
2022-07-30T20:44:11.160Z,69.48
2022-07-30T20:46:37.932Z,69.98
2022-07-30T20:49:01.662Z,70.13
2022-07-30T20:51:33.463Z,69.87
2022-07-30T20:53:57.144Z,70.49
2022-07-30T20:56:23.935Z,69.66
2022-07-30T20:58:47.466Z,69.48
2022-07-30T21:01:15.563Z,69.41
2022-07-30T21:03:40.966Z,69.27
2022-07-30T21:06:04.338Z,69.62
2022-07-30T21:08:27.816Z,69.85
2022-07-30T21:10:51.007Z,69.76
2022-07-30T21:13:15.638Z,69.85
2022-07-30T21:15:45.613Z,69.62
2022-07-30T21:18:23.460Z,69.57
2022-07-30T21:20:47.408Z,69.28
2022-07-30T21:23:11.850Z,69.11
2022-07-30T21:25:35.016Z,69.16
2022-07-30T21:28:27.556Z,69.15
2022-07-30T21:30:51.233Z,68.47
2022-07-30T21:33:14.920Z,67.91
2022-07-30T21:35:38.102Z,67.73
2022-07-30T21:38:04.567Z,67.80
2022-07-30T21:40:32.083Z,67.71
2022-07-30T21:42:55.284Z,67.04
2022-07-30T21:45:21.168Z,67.22
2022-07-30T21:47:47.562Z,67.92
2022-07-30T21:50:11.634Z,67.20
2022-07-30T21:52:36.285Z,66.82
2022-07-30T21:54:59.534Z,67.08
2022-07-30T21:57:30.131Z,67.16
2022-07-30T21:59:53.613Z,67.55
2022-07-30T22:02:19.938Z,67.84
2022-07-30T22:04:44.943Z,67.43
2022-07-30T22:07:10.754Z,67.14
2022-07-30T22:09:34.760Z,66.90
2022-07-30T22:12:00.873Z,67.14
2022-07-30T22:14:25.540Z,66.59
2022-07-30T22:16:48.873Z,66.48
2022-07-30T22:19:14.402Z,66.04
2022-07-30T22:21:37.706Z,65.10
2022-07-30T22:24:01.824Z,65.62
2022-07-30T22:26:26.651Z,64.84
2022-07-30T22:28:52.639Z,65.15
2022-07-30T22:31:17.605Z,64.77
2022-07-30T22:33:40.703Z,64.81
2022-07-30T22:36:06.691Z,63.60
2022-07-30T22:38:32.970Z,63.30
2022-07-30T22:40:57.139Z,63.51
2022-07-30T22:43:20.241Z,63.23
2022-07-30T22:45:48.789Z,63.10
2022-07-30T22:48:13.182Z,62.71
2022-07-30T22:50:36.226Z,63.20
2022-07-30T22:54:02.675Z,63.83
2022-07-30T22:55:47.739Z,62.74
2022-07-30T22:58:10.912Z,62.47
2022-07-30T23:00:34.025Z,62.09
2022-07-30T23:02:57.264Z,62.14
2022-07-30T23:05:20.294Z,62.40
2022-07-30T23:07:44.222Z,62.68
2022-07-30T23:10:17.819Z,62.39
2022-07-30T23:12:14.918Z,69.59
2022-07-30T23:12:19.396Z,69.90
2022-07-30T23:12:42.111Z,61.78
2022-07-30T23:15:05.613Z,61.41
2022-07-30T23:17:28.697Z,61.46
2022-07-30T23:19:51.749Z,61.20
2022-07-30T23:22:14.823Z,60.98
2022-07-30T23:24:37.822Z,60.26
2022-07-30T23:27:02.516Z,59.94
2022-07-30T23:29:25.790Z,59.86
2022-07-30T23:31:49.410Z,59.51
2022-07-30T23:34:12.483Z,59.49
2022-07-30T23:36:35.513Z,59.51
2022-07-30T23:38:58.666Z,59.39
2022-07-30T23:41:28.592Z,59.52
2022-07-30T23:43:55.089Z,58.91
2022-07-30T23:46:18.226Z,59.62
2022-07-30T23:48:41.286Z,59.40
2022-07-30T23:51:04.668Z,59.43
2022-07-30T23:53:27.698Z,59.35
2022-07-30T23:55:50.945Z,59.16
2022-07-30T23:58:14.131Z,59.73
